Time;durP1;ratioP1;P1;durP2;ratioP2;P2;SDS_P1;SDS_P2;PMS_P1;PMS_P2;Temp;Humidity;BMP_temperature;BMP_pressure;BME280_temperature;BME280_humidity;BME280_pressure;Samples;Min_cycle;Max_cycle;Signal;HPM_P1;HPM_P2
2023/10/14 00:01:14;;;;;;;2.53;2.23;;;;;;;22.61;63.37;96911.03;4978865;28;20215;-25
2023/10/14 00:03:41;;;;;;;3.23;2.43;;;;;;;22.61;63.39;96905.03;4971879;28;20240;-25
2023/10/14 00:06:12;;;;;;;2.97;2.40;;;;;;;22.62;63.25;96896.53;4972362;28;20215;-25
2023/10/14 00:08:59;;;;;;;3.10;2.30;;;;;;;22.62;63.36;96899.94;4978325;28;20224;-25
2023/10/14 00:11:34;;;;;;;2.40;2.20;;;;;;;22.62;63.41;96905.06;4971137;28;20274;-25
2023/10/14 00:14:09;;;;;;;2.67;2.30;;;;;;;22.63;63.45;96895.69;4978789;28;20253;-25
2023/10/14 00:16:41;;;;;;;2.37;2.17;;;;;;;22.61;63.34;96889.66;4978231;28;20238;-25
2023/10/14 00:19:09;;;;;;;2.63;2.17;;;;;;;22.62;63.41;96897.38;4970042;28;20207;-25
2023/10/14 00:21:36;;;;;;;2.57;2.37;;;;;;;22.62;63.47;96897.38;4976093;28;20709;-25
2023/10/14 00:24:05;;;;;;;2.97;2.07;;;;;;;22.63;63.37;96890.56;4975815;28;20290;-25
2023/10/14 00:26:32;;;;;;;3.00;2.70;;;;;;;22.62;63.40;96902.50;4975046;28;20207;-25
2023/10/14 00:31:45;;;;;;;2.67;2.20;;;;;;;22.61;63.37;96895.66;4974066;28;20298;-25
2023/10/14 00:34:14;;;;;;;4.80;2.37;;;;;;;22.62;63.40;96893.97;4976137;28;20199;-25
2023/10/14 00:36:41;;;;;;;2.57;2.37;;;;;;;22.60;63.43;96891.38;4975510;28;20745;-25
2023/10/14 00:39:15;;;;;;;2.40;2.20;;;;;;;22.61;63.37;96890.53;4975573;28;20211;-25
2023/10/14 00:41:43;;;;;;;2.43;2.23;;;;;;;22.61;63.46;96892.22;4976390;28;20229;-25
2023/10/14 00:44:10;;;;;;;2.30;2.07;;;;;;;22.60;63.37;96890.50;4966998;28;20208;-25
2023/10/14 00:46:59;;;;;;;2.37;2.17;;;;;;;22.62;63.39;96886.28;4972400;28;20258;-25
2023/10/14 00:49:31;;;;;;;2.37;2.17;;;;;;;22.62;63.39;96883.72;4974643;28;20234;-25
2023/10/14 00:51:59;;;;;;;3.47;2.40;;;;;;;22.63;63.36;96882.88;4974689;28;20212;-25
2023/10/14 00:57:10;;;;;;;3.33;2.03;;;;;;;22.62;63.38;96887.13;4971916;28;20263;-25
2023/10/14 00:59:37;;;;;;;2.50;2.30;;;;;;;22.63;63.44;96885.44;4967009;28;20269;-25
2023/10/14 01:02:07;;;;;;;2.40;2.20;;;;;;;22.61;63.44;96877.72;4974767;28;20208;-25
2023/10/14 01:04:34;;;;;;;3.27;1.90;;;;;;;22.62;63.64;96873.47;4967113;28;20212;-25
2023/10/14 01:09:48;;;;;;;2.23;1.93;;;;;;;22.61;63.43;96882.84;4968169;28;20279;-26
2023/10/14 01:12:16;;;;;;;2.30;2.10;;;;;;;22.61;63.39;96874.28;4964577;28;20204;-25
2023/10/14 01:14:44;;;;;;;3.37;2.30;;;;;;;22.61;63.38;96870.03;4963837;28;20215;-25
2023/10/14 01:17:32;;;;;;;2.60;2.40;;;;;;;22.60;63.46;96865.78;4968367;28;20671;-26
2023/10/14 01:20:09;;;;;;;2.57;2.37;;;;;;;22.60;63.43;96867.47;4961560;28;20251;-25
2023/10/14 01:22:40;;;;;;;2.57;2.27;;;;;;;22.61;63.48;96864.06;4982710;28;20592;-25
2023/10/14 01:25:12;;;;;;;2.30;2.10;;;;;;;22.61;63.43;96861.50;4967707;28;20207;-25
2023/10/14 01:27:42;;;;;;;2.20;2.00;;;;;;;22.61;63.43;96861.50;4969002;28;20283;-25
2023/10/14 01:30:20;;;;;;;2.07;1.90;;;;;;;22.61;63.47;96867.47;4970177;28;20602;-25
2023/10/14 01:35:25;;;;;;;2.27;2.10;;;;;;;22.62;63.42;96853.00;4968439;28;20583;-25
2023/10/14 01:37:52;;;;;;;2.43;2.23;;;;;;;22.63;63.44;96849.56;4967760;28;20219;-25
2023/10/14 01:43:04;;;;;;;2.10;1.90;;;;;;;22.62;63.35;96850.44;4963336;28;20211;-25
2023/10/14 01:45:31;;;;;;;1.93;1.83;;;;;;;22.61;63.42;96841.00;4970349;28;20211;-25
2023/10/14 01:50:45;;;;;;;2.83;2.20;;;;;;;22.61;63.43;96841.88;4962497;28;20326;-25
2023/10/14 01:53:18;;;;;;;2.03;1.83;;;;;;;22.60;63.49;96847.84;4965818;28;20216;-25
2023/10/14 01:55:45;;;;;;;2.40;2.20;;;;;;;22.61;63.50;96846.13;4967520;28;20241;-25
2023/10/14 01:58:21;;;;;;;2.60;2.23;;;;;;;22.60;63.44;96836.72;4968884;28;20212;-25
2023/10/14 02:03:44;;;;;;;2.87;2.30;;;;;;;22.61;63.50;96833.31;4970774;28;20231;-25
2023/10/14 02:06:17;;;;;;;3.80;2.10;;;;;;;22.61;63.43;96826.50;4970116;28;20298;-25
2023/10/14 02:08:45;;;;;;;3.10;2.30;;;;;;;22.61;63.41;96829.06;4965604;28;20207;-25
2023/10/14 02:11:11;;;;;;;3.57;1.97;;;;;;;22.62;63.55;96840.19;4965680;28;20262;-25
2023/10/14 02:13:38;;;;;;;2.30;2.10;;;;;;;22.62;63.48;96843.59;4965491;28;20208;-25
2023/10/14 02:16:07;;;;;;;2.03;1.83;;;;;;;22.63;63.41;96839.34;4965117;28;20584;-25
2023/10/14 02:18:38;;;;;;;2.63;2.10;;;;;;;22.52;63.52;96813.56;4967340;28;20204;-25
2023/10/14 02:21:06;;;;;;;2.20;2.00;;;;;;;22.61;63.39;96834.19;4962941;28;20718;-25
2023/10/14 02:23:45;;;;;;;2.20;2.00;;;;;;;22.62;63.49;96833.34;4965607;28;20219;-25
2023/10/14 02:26:12;;;;;;;2.40;2.10;;;;;;;22.62;63.39;96835.06;4971417;28;20204;-25
2023/10/14 02:28:45;;;;;;;2.20;2.00;;;;;;;22.61;63.43;96829.06;4969793;28;20200;-25
2023/10/14 02:31:29;;;;;;;2.07;1.90;;;;;;;22.61;63.42;96820.50;4966252;28;20286;-25
2023/10/14 02:34:03;;;;;;;2.03;1.87;;;;;;;22.61;63.48;96823.06;4965567;28;20210;-25
2023/10/14 02:36:34;;;;;;;2.13;2.00;;;;;;;22.60;63.46;96812.00;4964288;28;20238;-25
2023/10/14 02:39:01;;;;;;;3.00;1.77;;;;;;;22.60;63.36;96809.44;4963770;28;20291;-25
2023/10/14 02:41:32;;;;;;;2.33;2.10;;;;;;;22.61;63.47;96807.72;4966774;28;20306;-25
2023/10/14 02:44:19;;;;;;;2.30;2.10;;;;;;;22.62;63.48;96812.00;4962310;28;20829;-25
2023/10/14 02:46:46;;;;;;;2.53;2.27;;;;;;;22.59;63.36;96806.84;4969588;28;20589;-25
2023/10/14 02:49:14;;;;;;;2.27;2.07;;;;;;;22.61;63.44;96813.69;4969284;28;20204;-25
2023/10/14 02:51:44;;;;;;;2.30;2.10;;;;;;;22.62;63.40;96810.28;4969959;28;20235;-25
2023/10/14 02:54:53;;;;;;;2.13;1.90;;;;;;;22.63;63.38;96823.97;4964456;28;20212;-25
2023/10/14 02:57:13;;;;;;;2.50;2.30;;;;;;;22.62;63.30;96806.88;4963542;28;20218;-25
2023/10/14 02:59:43;;;;;;;3.33;2.37;;;;;;;22.62;63.42;96823.09;4966075;28;20277;-25
2023/10/14 03:02:14;;;;;;;2.20;2.00;;;;;;;22.61;63.44;96823.94;4967940;28;20302;-25
2023/10/14 03:07:25;;;;;;;2.20;2.00;;;;;;;22.61;63.49;96826.50;4960759;28;20239;-25
2023/10/14 03:09:52;;;;;;;2.30;2.10;;;;;;;22.60;63.44;96829.91;4970143;28;20285;-25
2023/10/14 03:12:19;;;;;;;2.33;1.97;;;;;;;22.61;63.49;96828.19;4968530;28;20634;-25
2023/10/14 03:14:48;;;;;;;2.47;2.20;;;;;;;22.60;63.49;96832.47;4968802;28;20282;-25
2023/10/14 03:17:21;;;;;;;1.87;1.77;;;;;;;22.61;63.48;96830.75;4966307;28;20212;-25
2023/10/14 03:19:53;;;;;;;2.10;1.90;;;;;;;22.61;63.43;96831.63;4971291;28;20231;-25
2023/10/14 03:22:25;;;;;;;2.10;2.00;;;;;;;22.62;63.35;96827.38;4968969;28;20634;-25
2023/10/14 03:24:52;;;;;;;2.87;2.10;;;;;;;22.61;63.09;96826.50;4966540;28;20254;-25
2023/10/14 03:27:19;;;;;;;2.43;2.23;;;;;;;22.62;63.39;96825.66;4963781;28;20675;-25
2023/10/14 03:29:54;;;;;;;2.20;2.00;;;;;;;22.63;63.33;96831.66;4965709;28;20223;-25
2023/10/14 03:32:32;;;;;;;2.40;2.20;;;;;;;22.64;63.39;96815.44;4972902;28;20211;-25
2023/10/14 03:35:06;;;;;;;2.23;2.03;;;;;;;22.63;63.38;96821.41;4968200;28;20207;-25
2023/10/14 03:37:36;;;;;;;3.17;2.20;;;;;;;22.63;63.42;96821.41;4967990;28;20215;-25
2023/10/14 03:40:37;;;;;;;2.40;2.20;;;;;;;22.62;63.45;96825.66;4967276;28;20322;-25
2023/10/14 03:43:05;;;;;;;2.50;2.10;;;;;;;22.62;63.41;96809.44;4967377;28;20290;-25
2023/10/14 03:45:32;;;;;;;2.20;2.00;;;;;;;22.60;63.56;96806.88;4966624;28;20207;-25
2023/10/14 03:48:00;;;;;;;2.10;2.00;;;;;;;22.61;63.37;96805.16;4967252;28;20203;-25
2023/10/14 03:50:28;;;;;;;2.03;1.90;;;;;;;22.60;63.43;96803.44;4970725;28;20231;-25
2023/10/14 03:52:55;;;;;;;2.17;2.00;;;;;;;22.61;63.47;96807.72;4973008;28;20204;-25
2023/10/14 03:55:25;;;;;;;2.30;2.10;;;;;;;22.60;63.39;96814.56;4968242;28;20286;-25
2023/10/14 03:58:04;;;;;;;2.03;1.87;;;;;;;22.61;63.38;96808.56;4966164;28;20274;-25
2023/10/14 04:00:37;;;;;;;2.40;2.20;;;;;;;22.62;63.35;96806.88;4966125;28;20225;-25
2023/10/14 04:03:13;;;;;;;2.00;1.90;;;;;;;22.62;63.37;96802.59;4963626;28;20204;-27
2023/10/14 04:05:44;;;;;;;2.10;1.90;;;;;;;22.63;63.27;96803.47;4970318;28;20704;-25
2023/10/14 04:08:13;;;;;;;2.20;2.03;;;;;;;22.62;63.37;96802.59;4972363;28;20204;-25
2023/10/14 04:10:45;;;;;;;2.30;2.10;;;;;;;22.63;63.44;96798.34;4967496;28;20219;-25
2023/10/14 04:13:21;;;;;;;2.10;2.00;;;;;;;22.63;63.34;96783.00;4970863;28;20208;-25
2023/10/14 04:15:51;;;;;;;2.10;1.90;;;;;;;22.63;63.39;96796.66;4965313;28;20216;-25
2023/10/14 04:18:24;;;;;;;2.10;1.90;;;;;;;22.62;63.38;96778.72;4971018;28;20218;-25
2023/10/14 04:21:11;;;;;;;2.20;2.00;;;;;;;22.62;63.48;96781.28;4970066;28;20223;-25
2023/10/14 04:23:59;;;;;;;1.90;1.80;;;;;;;22.61;63.47;96779.53;4973213;28;20215;-25
2023/10/14 04:26:25;;;;;;;1.87;1.77;;;;;;;22.61;63.39;96784.66;4969576;28;20746;-25
2023/10/14 04:28:54;;;;;;;2.20;2.00;;;;;;;22.61;63.42;96784.66;4965148;28;20243;-25
2023/10/14 04:31:27;;;;;;;2.20;2.00;;;;;;;22.62;63.41;96776.16;4969349;28;20702;-25
2023/10/14 04:33:54;;;;;;;2.57;2.07;;;;;;;22.61;63.57;96776.97;4966821;28;20204;-25
2023/10/14 04:36:36;;;;;;;2.00;1.90;;;;;;;22.62;63.33;96778.72;4967596;28;20584;-25
2023/10/14 04:39:26;;;;;;;1.83;1.73;;;;;;;22.62;63.43;96773.59;4969642;28;20212;-25
2023/10/14 04:42:25;;;;;;;2.03;1.90;;;;;;;22.62;63.43;96773.59;4969989;28;20228;-26
2023/10/14 04:44:58;;;;;;;1.93;1.83;;;;;;;22.62;63.39;96771.88;4963885;28;20231;-25
2023/10/14 04:47:47;;;;;;;2.00;1.90;;;;;;;22.63;63.48;96762.50;4967269;28;20211;-25
2023/10/14 04:50:16;;;;;;;2.30;2.10;;;;;;;22.63;63.40;96762.50;4966643;28;20227;-25
2023/10/14 04:52:48;;;;;;;2.63;2.13;;;;;;;22.60;63.42;96763.34;4973942;28;20208;-25
2023/10/14 04:55:25;;;;;;;2.37;2.17;;;;;;;22.62;63.43;96760.78;4970594;28;20201;-25
2023/10/14 05:00:42;;;;;;;1.90;1.80;;;;;;;22.61;63.42;96770.16;4971062;28;20262;-25
2023/10/14 05:03:11;;;;;;;2.67;1.97;;;;;;;22.60;63.44;96763.34;4971927;28;20266;-25
2023/10/14 05:05:41;;;;;;;2.20;2.00;;;;;;;22.60;63.47;96773.56;4968833;28;20239;-26
2023/10/14 05:08:15;;;;;;;2.13;1.87;;;;;;;22.60;63.46;96759.91;4967200;28;20204;-25
2023/10/14 05:10:43;;;;;;;2.10;1.90;;;;;;;22.61;63.47;96769.28;4971541;28;20600;-25
2023/10/14 05:13:10;;;;;;;2.37;2.17;;;;;;;22.61;63.42;96761.59;4969579;28;20215;-25
2023/10/14 05:15:41;;;;;;;2.10;1.90;;;;;;;22.61;63.52;96770.16;4970609;28;20219;-25
2023/10/14 05:18:15;;;;;;;2.20;2.03;;;;;;;22.61;63.42;96772.72;4973079;28;20842;-25
2023/10/14 05:23:30;;;;;;;3.00;2.57;;;;;;;22.62;63.47;96760.78;4969774;28;20246;-25
2023/10/14 05:25:58;;;;;;;2.47;1.90;;;;;;;22.62;63.41;96758.22;4963343;28;20328;-25
2023/10/14 05:28:31;;;;;;;1.83;1.73;;;;;;;22.61;63.43;96754.78;4970333;28;20750;-25
2023/10/14 05:31:00;;;;;;;2.03;1.93;;;;;;;22.62;63.34;96764.19;4971113;28;20314;-26
2023/10/14 05:33:31;;;;;;;1.90;1.80;;;;;;;22.57;63.42;96753.03;4972031;28;20742;-25
2023/10/14 05:35:57;;;;;;;1.90;1.80;;;;;;;22.60;63.63;96760.78;4968980;28;20210;-31
2023/10/14 05:38:24;;;;;;;2.20;2.00;;;;;;;22.61;63.40;96766.72;4973324;28;20199;-25
2023/10/14 05:40:55;;;;;;;2.00;1.90;;;;;;;22.61;63.50;96767.59;4969895;28;20223;-30
2023/10/14 05:43:23;;;;;;;1.97;1.87;;;;;;;22.56;63.62;96769.22;4966540;28;20247;-25
2023/10/14 05:45:52;;;;;;;2.17;1.97;;;;;;;22.60;63.56;96776.13;4964356;28;20246;-25
2023/10/14 05:48:26;;;;;;;1.80;1.70;;;;;;;22.60;63.38;96773.56;4983752;28;20199;-25
2023/10/14 05:50:54;;;;;;;2.20;1.87;;;;;;;22.62;63.49;96776.16;4973055;28;20219;-25
2023/10/14 05:53:21;;;;;;;2.07;1.97;;;;;;;22.62;63.40;96776.16;4971334;28;20317;-25
2023/10/14 05:55:56;;;;;;;3.83;1.93;;;;;;;22.58;63.33;96774.38;4965089;28;20262;-25
2023/10/14 05:58:27;;;;;;;2.47;1.93;;;;;;;22.62;63.38;96781.28;4961605;28;20222;-25
2023/10/14 06:00:55;;;;;;;2.10;1.90;;;;;;;22.63;63.38;96791.53;4961819;28;21019;-27
2023/10/14 06:03:22;;;;;;;2.10;1.90;;;;;;;22.63;63.33;96790.66;4960694;28;20238;-25
2023/10/14 06:05:48;;;;;;;1.90;1.80;;;;;;;22.64;63.45;96792.38;4959455;28;20564;-28
2023/10/14 06:08:18;;;;;;;1.87;1.77;;;;;;;22.63;63.45;96803.47;4960524;28;20634;-27
2023/10/14 06:10:44;;;;;;;2.10;1.90;;;;;;;22.63;63.28;96803.47;4960636;28;20246;-25
2023/10/14 06:13:12;;;;;;;2.30;2.10;;;;;;;22.62;63.45;96807.72;4960582;28;20274;-29
2023/10/14 06:15:39;;;;;;;2.10;1.90;;;;;;;22.61;63.43;96811.13;4961371;28;20294;-25
2023/10/14 06:18:08;;;;;;;1.70;1.60;;;;;;;22.62;63.43;96822.25;4963039;28;20291;-26
2023/10/14 06:20:35;;;;;;;2.50;1.80;;;;;;;22.62;63.50;96822.25;4962399;28;20247;-25
2023/10/14 06:23:01;;;;;;;2.10;2.00;;;;;;;22.62;63.37;96830.78;4962154;28;20294;-25
2023/10/14 06:25:31;;;;;;;2.20;2.00;;;;;;;22.63;62.99;96836.78;4962679;28;20214;-25
2023/10/14 06:27:58;;;;;;;2.07;1.87;;;;;;;22.63;63.33;96837.66;4959989;28;20730;-25
2023/10/14 06:30:29;;;;;;;1.93;1.83;;;;;;;22.64;63.52;96836.78;4961614;28;20223;-32
2023/10/14 06:33:03;;;;;;;1.83;1.73;;;;;;;22.65;63.34;96842.78;4960060;28;20640;-25
2023/10/14 06:35:34;;;;;;;1.87;1.77;;;;;;;22.66;63.39;96844.50;4966898;28;20207;-25
2023/10/14 06:38:04;;;;;;;2.03;1.83;;;;;;;22.67;63.26;96849.63;4970806;28;20291;-25
2023/10/14 06:40:37;;;;;;;1.90;1.80;;;;;;;22.68;63.36;96845.41;4971948;28;20740;-25
2023/10/14 06:43:08;;;;;;;1.90;1.80;;;;;;;22.69;63.22;96862.47;4977952;28;20208;-37
2023/10/14 06:45:36;;;;;;;1.80;1.70;;;;;;;22.69;63.36;96870.16;4973033;28;20641;-25
2023/10/14 06:48:03;;;;;;;2.03;1.87;;;;;;;22.69;63.33;96865.03;4972124;28;20199;-25
2023/10/14 06:50:31;;;;;;;1.83;1.73;;;;;;;22.66;63.33;96870.97;4973060;28;20219;-25
2023/10/14 06:53:01;;;;;;;2.40;2.20;;;;;;;22.67;63.24;96879.50;4972771;28;20318;-25
2023/10/14 06:55:28;;;;;;;1.90;1.70;;;;;;;22.67;63.23;96890.63;4972647;28;20211;-26
2023/10/14 06:57:55;;;;;;;2.03;1.90;;;;;;;22.62;63.32;96873.47;4969117;28;20204;-34
2023/10/14 07:00:30;;;;;;;1.80;1.70;;;;;;;22.66;63.35;96881.22;4964288;28;20224;-25
2023/10/14 07:03:02;;;;;;;2.10;1.90;;;;;;;22.67;63.41;96897.44;4972792;28;20231;-25
2023/10/14 07:05:29;;;;;;;1.80;1.70;;;;;;;22.65;63.33;96897.41;4965081;28;20705;-25
2023/10/14 07:07:57;;;;;;;1.80;1.70;;;;;;;22.65;63.30;96894.84;4972642;28;20237;-34
2023/10/14 07:10:32;;;;;;;1.87;1.77;;;;;;;22.66;63.41;96888.91;4971640;28;20223;-25
2023/10/14 07:13:00;;;;;;;2.27;1.97;;;;;;;22.67;63.32;96895.75;4973954;28;20238;-25
2023/10/14 07:15:29;;;;;;;1.60;1.50;;;;;;;22.67;63.33;96897.44;4972746;28;20199;-26
2023/10/14 07:17:57;;;;;;;2.00;1.73;;;;;;;22.69;63.13;96893.22;4972326;28;20206;-25
2023/10/14 07:20:25;;;;;;;3.33;1.80;;;;;;;22.70;63.31;96898.34;4978666;28;20275;-25
2023/10/14 07:22:51;;;;;;;3.63;2.07;;;;;;;22.71;63.45;96909.47;4975567;28;20200;-25
2023/10/14 07:25:18;;;;;;;2.23;1.93;;;;;;;22.71;63.33;96915.44;4974523;28;20238;-25
2023/10/14 07:27:51;;;;;;;2.10;1.90;;;;;;;22.71;63.38;96919.72;4973975;28;20208;-25
2023/10/14 07:30:18;;;;;;;3.67;1.90;;;;;;;22.70;63.51;96916.28;4973555;28;20219;-25
2023/10/14 07:32:46;;;;;;;4.13;2.10;;;;;;;22.71;63.49;96909.47;4975249;28;20227;-25
2023/10/14 07:35:16;;;;;;;5.80;2.13;;;;;;;22.71;63.15;96918.00;4974550;28;20196;-25
2023/10/14 07:37:45;;;;;;;2.37;2.00;;;;;;;22.71;63.39;96910.31;4976065;28;20230;-25
2023/10/14 07:40:12;;;;;;;2.63;2.20;;;;;;;22.71;63.44;96922.28;4966688;28;20254;-25
2023/10/14 07:42:38;;;;;;;3.73;2.50;;;;;;;22.71;63.44;96919.72;4975433;28;20606;-25
2023/10/14 07:45:11;;;;;;;4.40;2.33;;;;;;;22.70;63.48;96926.53;4976510;28;20223;-25
2023/10/14 07:47:40;;;;;;;2.50;2.00;;;;;;;22.70;63.50;96934.22;4972913;28;20203;-25
2023/10/14 07:50:09;;;;;;;3.67;2.30;;;;;;;22.70;63.53;96926.53;4967733;28;20220;-25
2023/10/14 07:52:37;;;;;;;5.83;2.47;;;;;;;22.70;63.57;96934.22;4976980;28;20227;-25
2023/10/14 07:55:04;;;;;;;5.07;2.07;;;;;;;22.71;63.63;96932.53;4972381;28;20200;-25
2023/10/14 07:57:31;;;;;;;6.00;2.67;;;;;;;22.70;63.45;96930.78;4974054;28;20287;-25
2023/10/14 08:00:09;;;;;;;5.03;2.30;;;;;;;22.70;63.62;96928.22;4968851;28;20697;-25
2023/10/14 08:02:36;;;;;;;4.37;2.37;;;;;;;22.71;63.58;96947.91;4972195;28;20292;-25
2023/10/14 08:05:05;;;;;;;3.90;2.63;;;;;;;22.68;63.64;96938.44;4964990;28;20205;-25
2023/10/14 08:07:35;;;;;;;2.97;2.17;;;;;;;22.68;63.73;96925.63;4979520;28;20226;-25
2023/10/14 08:10:16;;;;;;;4.87;2.53;;;;;;;22.67;63.78;96944.41;4977256;28;20239;-25
2023/10/14 08:12:47;;;;;;;2.87;2.10;;;;;;;22.66;63.84;96923.91;4978666;28;20227;-25
2023/10/14 08:15:13;;;;;;;5.93;2.40;;;;;;;22.67;63.74;96944.41;4976643;28;20588;-25
2023/10/14 08:17:41;;;;;;;5.50;2.57;;;;;;;22.66;63.88;96931.59;4969858;28;20203;-25
2023/10/14 08:20:12;;;;;;;6.83;2.60;;;;;;;22.65;63.73;96950.38;4971251;28;20698;-29
2023/10/14 08:22:40;;;;;;;3.73;2.30;;;;;;;22.64;63.64;96944.38;4968997;28;20204;-25
2023/10/14 08:25:07;;;;;;;6.70;2.50;;;;;;;22.64;63.82;96944.38;4975091;28;20203;-25
2023/10/14 08:27:34;;;;;;;6.90;2.40;;;;;;;22.65;63.76;96948.63;4966827;28;20285;-25
2023/10/14 08:30:10;;;;;;;7.60;2.30;;;;;;;22.65;63.78;96952.91;4967353;28;20311;-25
2023/10/14 08:32:40;;;;;;;4.90;2.40;;;;;;;22.64;63.78;96949.50;4974349;28;20227;-25
2023/10/14 08:35:19;;;;;;;8.10;2.60;;;;;;;22.64;63.79;96959.72;4971111;28;20614;-28
2023/10/14 08:37:53;;;;;;;7.37;2.30;;;;;;;22.63;63.78;96946.91;4977152;28;20665;-25
2023/10/14 08:40:26;;;;;;;4.33;2.63;;;;;;;22.63;63.82;96950.34;4972466;28;20219;-25
2023/10/14 08:42:58;;;;;;;3.40;2.37;;;;;;;22.63;63.73;96952.91;4969717;28;20211;-25
2023/10/14 08:45:28;;;;;;;4.90;2.70;;;;;;;22.63;63.87;96949.47;4972001;28;20277;-25
2023/10/14 08:47:55;;;;;;;5.73;2.47;;;;;;;22.63;63.90;96940.09;4976241;28;20258;-25
2023/10/14 08:50:24;;;;;;;3.97;2.70;;;;;;;22.63;63.78;96946.91;4986191;28;20671;-25
2023/10/14 08:52:54;;;;;;;3.83;2.47;;;;;;;22.57;63.72;96934.00;4974661;28;20223;-26
2023/10/14 08:55:20;;;;;;;3.17;2.40;;;;;;;22.63;63.83;96936.66;4973705;28;20295;-26
2023/10/14 08:57:48;;;;;;;4.93;2.50;;;;;;;22.64;63.86;96946.94;4978840;28;20255;-25
2023/10/14 09:00:19;;;;;;;2.80;2.20;;;;;;;22.64;63.84;96946.06;4972449;28;20223;-25
2023/10/14 09:02:54;;;;;;;4.77;2.83;;;;;;;22.64;63.82;96949.50;4973498;28;20204;-25
2023/10/14 09:05:21;;;;;;;3.53;2.13;;;;;;;22.65;63.77;96946.06;4974135;28;20202;-25
2023/10/14 09:07:51;;;;;;;2.57;2.37;;;;;;;22.66;63.71;96959.75;4977578;28;20203;-25
2023/10/14 09:10:18;;;;;;;3.57;2.50;;;;;;;22.68;63.73;96950.41;4976544;28;20330;-25
2023/10/14 09:13:03;;;;;;;4.47;2.80;;;;;;;22.66;63.89;96945.25;4972414;28;20220;-28
2023/10/14 09:15:32;;;;;;;3.40;2.27;;;;;;;22.67;63.65;96949.53;4971646;28;20204;-25
2023/10/14 09:17:58;;;;;;;2.83;2.07;;;;;;;22.68;63.79;96950.41;4973783;28;20204;-25
2023/10/14 09:20:35;;;;;;;4.07;2.50;;;;;;;22.68;63.74;96956.38;4974015;28;20270;-26
2023/10/14 09:23:31;;;;;;;3.03;2.60;;;;;;;22.68;63.73;96950.41;4977620;28;20195;-25
2023/10/14 09:26:01;;;;;;;3.87;2.43;;;;;;;22.68;63.66;96950.41;4963034;28;20259;-25
2023/10/14 09:28:35;;;;;;;4.40;2.63;;;;;;;22.70;63.63;96956.41;4974400;28;20246;-27
2023/10/14 09:31:08;;;;;;;4.43;2.40;;;;;;;22.71;63.74;96958.16;4974002;28;20653;-25
2023/10/14 09:33:36;;;;;;;3.07;2.33;;;;;;;22.72;63.55;96959.84;4971339;28;20770;-25
2023/10/14 09:36:11;;;;;;;5.07;2.23;;;;;;;22.72;63.52;96941.94;4968657;28;20267;-25
2023/10/14 09:38:39;;;;;;;6.43;2.90;;;;;;;22.73;63.59;96935.94;4971235;28;20745;-25
2023/10/14 09:41:07;;;;;;;3.60;2.40;;;;;;;22.73;63.56;96954.75;4977665;28;20226;-25
2023/10/14 09:43:39;;;;;;;3.50;2.60;;;;;;;22.73;63.60;96941.94;4973601;28;20290;-25
2023/10/14 09:46:10;;;;;;;3.87;2.10;;;;;;;22.75;63.42;96949.66;4973752;28;20214;-25
2023/10/14 09:48:38;;;;;;;2.77;2.40;;;;;;;22.75;63.53;96941.97;4970961;28;20246;-25
2023/10/14 09:51:06;;;;;;;3.93;2.50;;;;;;;22.75;63.43;96939.41;4972323;28;20306;-25
2023/10/14 09:53:36;;;;;;;3.10;2.57;;;;;;;22.75;63.36;96957.34;4975091;28;20310;-25
2023/10/14 09:56:05;;;;;;;3.97;2.70;;;;;;;22.74;63.66;96956.47;4966702;28;20272;-25
2023/10/14 09:58:34;;;;;;;2.53;2.33;;;;;;;22.75;63.44;96962.47;4973397;28;20242;-25
2023/10/14 10:01:04;;;;;;;2.40;2.20;;;;;;;22.74;63.52;96966.72;4977399;28;20713;-25
2023/10/14 10:03:37;;;;;;;5.53;2.60;;;;;;;22.75;63.56;96973.59;4973404;28;20200;-25
2023/10/14 10:06:13;;;;;;;8.53;2.53;;;;;;;22.75;63.59;96970.16;4953417;29;20208;-25
2023/10/14 10:09:02;;;;;;;2.80;2.30;;;;;;;22.75;63.54;96965.91;4973137;28;20624;-25
2023/10/14 10:11:29;;;;;;;4.40;2.53;;;;;;;22.74;63.49;96964.16;4962760;28;20227;-25
2023/10/14 10:13:59;;;;;;;5.07;2.30;;;;;;;22.75;63.53;96967.59;4971855;28;20203;-25
2023/10/14 10:16:33;;;;;;;6.33;3.03;;;;;;;22.75;63.37;96967.59;4986305;28;20251;-25
2023/10/14 10:19:00;;;;;;;4.40;2.37;;;;;;;22.75;63.52;96955.66;4972291;28;20537;-25
2023/10/14 10:21:32;;;;;;;3.97;2.57;;;;;;;22.75;63.60;96949.66;4976427;28;20684;-25
2023/10/14 10:24:17;;;;;;;3.93;2.20;;;;;;;22.74;63.71;96943.66;4973222;28;20203;-25
2023/10/14 10:26:57;;;;;;;4.93;2.30;;;;;;;22.75;63.62;96936.84;4972303;28;20713;-25
2023/10/14 10:29:23;;;;;;;5.97;2.67;;;;;;;22.74;63.47;96941.09;4973818;28;20285;-25
2023/10/14 10:32:12;;;;;;;6.33;2.67;;;;;;;22.73;63.73;96944.50;4952846;28;20235;-26
2023/10/14 10:35:07;;;;;;;6.17;2.73;;;;;;;22.73;63.77;96939.38;4971845;28;20208;-25
2023/10/14 10:37:53;;;;;;;10.27;2.70;;;;;;;22.73;63.80;96933.38;4972771;28;20203;-25
2023/10/14 10:40:22;;;;;;;6.60;2.80;;;;;;;22.72;63.85;96924.88;4971309;28;20634;-25
2023/10/14 10:42:57;;;;;;;3.83;2.23;;;;;;;22.73;63.75;96923.13;4971366;28;20202;-26
2023/10/14 10:45:31;;;;;;;8.47;2.70;;;;;;;22.74;63.85;96922.31;4972682;28;20199;-25
2023/10/14 10:48:04;;;;;;;7.20;2.53;;;;;;;22.73;63.84;96912.91;4972602;28;20196;-25
2023/10/14 10:50:37;;;;;;;4.67;2.73;;;;;;;22.74;63.78;96909.53;4976056;28;20228;-25
2023/10/14 10:53:10;;;;;;;9.93;2.97;;;;;;;22.74;63.87;96912.06;4972818;28;20223;-25
2023/10/14 10:55:41;;;;;;;5.83;2.50;;;;;;;22.73;63.68;96890.72;4975704;28;20215;-25
2023/10/14 10:58:09;;;;;;;4.67;2.80;;;;;;;22.75;63.78;96885.63;4986968;28;20722;-25
2023/10/14 11:00:38;;;;;;;4.17;2.70;;;;;;;22.74;63.87;96896.72;4971957;28;20614;-25
2023/10/14 11:03:05;;;;;;;6.20;2.70;;;;;;;22.73;63.84;96921.44;4961561;28;20196;-25
2023/10/14 11:05:33;;;;;;;7.03;2.93;;;;;;;22.73;64.20;96931.69;4971277;28;20235;-25
2023/10/14 11:08:01;;;;;;;10.80;3.47;;;;;;;22.73;63.96;96928.25;4971400;28;20316;-26
2023/10/14 11:10:33;;;;;;;10.67;3.00;;;;;;;22.72;63.91;96911.19;4986232;28;20258;-23
2023/10/14 11:13:00;;;;;;;5.33;2.80;;;;;;;22.72;63.87;96908.63;4971591;28;20290;-23
2023/10/14 11:15:31;;;;;;;7.07;3.00;;;;;;;22.72;63.99;96903.50;4972604;28;20620;-24
2023/10/14 11:17:59;;;;;;;3.97;2.87;;;;;;;22.72;63.96;96903.50;4973805;28;20287;-23
2023/10/14 11:20:37;;;;;;;4.63;2.60;;;;;;;22.58;63.83;96875.13;4972209;28;20243;-24
2023/10/14 11:23:04;;;;;;;5.37;3.00;;;;;;;22.67;63.91;96897.44;4956480;28;20200;-24
2023/10/14 11:25:55;;;;;;;10.23;2.93;;;;;;;22.70;63.91;96905.16;4972318;28;20295;-23
2023/10/14 11:28:22;;;;;;;5.57;2.87;;;;;;;22.71;63.97;96901.78;4968083;28;20195;-23
2023/10/14 11:30:48;;;;;;;5.10;2.70;;;;;;;22.71;63.88;96896.66;4971203;28;20223;-31
2023/10/14 11:33:18;;;;;;;6.40;2.80;;;;;;;22.72;63.98;96903.50;4971821;28;20297;-23
2023/10/14 11:35:49;;;;;;;6.60;2.70;;;;;;;22.71;64.09;96892.38;4973564;28;20223;-24
2023/10/14 11:38:15;;;;;;;5.60;2.73;;;;;;;22.65;64.03;96892.28;4972228;28;20203;-25
2023/10/14 11:40:48;;;;;;;7.40;3.10;;;;;;;22.68;64.01;96883.81;4973488;28;20706;-23
2023/10/14 11:43:16;;;;;;;6.20;2.87;;;;;;;22.72;63.98;96901.81;4983864;28;20200;-22
2023/10/14 11:45:45;;;;;;;4.10;2.73;;;;;;;22.71;64.00;96900.06;4972228;28;20206;-24
2023/10/14 11:48:43;;;;;;;7.07;3.07;;;;;;;22.71;64.00;96886.41;4968165;28;20499;-23
2023/10/14 11:51:13;;;;;;;5.27;3.00;;;;;;;22.70;63.92;96888.09;4966298;28;20356;-24
2023/10/14 11:53:43;;;;;;;4.13;2.90;;;;;;;22.72;64.16;96898.38;4975434;28;20216;-23
2023/10/14 11:56:16;;;;;;;5.97;2.63;;;;;;;22.70;64.09;96893.22;4973123;28;20200;-23
2023/10/14 11:58:43;;;;;;;4.67;2.70;;;;;;;22.71;63.98;96892.38;4964127;28;20204;-23
2023/10/14 12:01:09;;;;;;;5.13;2.50;;;;;;;22.71;64.06;96899.22;4974697;28;20227;-23
2023/10/14 12:03:37;;;;;;;4.10;2.60;;;;;;;22.72;64.05;96906.06;4971743;28;20311;-23
2023/10/14 12:06:04;;;;;;;4.37;2.53;;;;;;;22.68;64.01;96917.09;4970492;28;20210;-24
2023/10/14 12:08:32;;;;;;;5.27;2.40;;;;;;;22.71;64.14;96933.38;4955276;28;20360;-23
2023/10/14 12:10:59;;;;;;;5.17;2.57;;;;;;;22.72;64.12;96954.72;4977541;28;20224;-24
2023/10/14 12:13:26;;;;;;;3.37;2.10;;;;;;;22.72;64.05;96960.72;4982781;28;20218;-24
2023/10/14 12:16:12;;;;;;;3.83;2.57;;;;;;;22.73;64.03;96925.72;4975757;28;20210;-23
2023/10/14 12:18:40;;;;;;;6.07;2.70;;;;;;;22.73;64.04;96921.44;4973742;28;20227;-23
2023/10/14 12:21:07;;;;;;;4.03;2.67;;;;;;;22.74;64.43;96940.25;4975498;28;20223;-24